Time;durP1;ratioP1;P1;durP2;ratioP2;P2;SDS_P1;SDS_P2;PMS_P1;PMS_P2;Temp;Humidity;BMP_temperature;BMP_pressure;BME280_temperature;BME280_humidity;BME280_pressure;Samples;Min_cycle;Max_cycle;Signal;HPM_P1;HPM_P2
2021/12/09 00:00:31;;;;;;;10.07;3.30;;;3.20;99.90;;;;;;4991024;28;20466;-59
2021/12/09 00:03:04;;;;;;;10.73;3.97;;;3.20;99.90;;;;;;4991012;28;20461;-59
2021/12/09 00:05:31;;;;;;;12.93;3.80;;;3.10;99.90;;;;;;4991008;28;20497;-59
2021/12/09 00:07:58;;;;;;;15.20;4.20;;;3.10;99.90;;;;;;4991011;28;20479;-59
2021/12/09 00:10:24;;;;;;;8.10;3.40;;;3.10;99.90;;;;;;4991056;28;20451;-59
2021/12/09 00:12:51;;;;;;;5.80;3.43;;;3.10;99.90;;;;;;4990615;28;20539;-59
2021/12/09 00:15:19;;;;;;;10.90;3.67;;;3.10;99.90;;;;;;4990829;28;20532;-57
2021/12/09 00:17:46;;;;;;;12.33;3.83;;;3.10;99.90;;;;;;4991016;28;20447;-59
2021/12/09 00:20:13;;;;;;;11.90;3.90;;;3.00;99.90;;;;;;4991084;28;20454;-59
2021/12/09 00:22:40;;;;;;;7.17;3.60;;;3.00;99.90;;;;;;4990283;28;20463;-59
2021/12/09 00:25:07;;;;;;;7.97;4.00;;;3.00;99.90;;;;;;4990310;28;21047;-58
2021/12/09 00:27:34;;;;;;;11.50;4.00;;;2.90;1.00;;;;;;4990512;28;20483;-59
2021/12/09 00:30:01;;;;;;;12.27;3.60;;;2.90;1.00;;;;;;4990858;28;20443;-59
2021/12/09 00:32:29;;;;;;;7.73;3.70;;;2.90;1.00;;;;;;4990561;28;20466;-59
2021/12/09 00:34:55;;;;;;;8.60;3.67;;;2.90;1.00;;;;;;4990590;28;20475;-59
2021/12/09 00:37:27;;;;;;;10.17;3.30;;;2.90;1.00;;;;;;4990786;28;20447;-57
2021/12/09 00:39:54;;;;;;;7.67;3.07;;;2.90;1.00;;;;;;4990602;28;20463;-59
2021/12/09 00:42:23;;;;;;;8.00;3.70;;;2.80;1.00;;;;;;4990460;28;20478;-59
2021/12/09 00:44:50;;;;;;;9.10;3.53;;;2.70;1.00;;;;;;4990501;28;20478;-59
2021/12/09 00:47:17;;;;;;;10.00;3.83;;;2.70;1.00;;;;;;4990254;28;20478;-59
2021/12/09 00:49:45;;;;;;;6.47;3.93;;;2.70;1.00;;;;;;4990472;28;20455;-59
2021/12/09 00:52:13;;;;;;;9.00;4.10;;;2.60;1.00;;;;;;4989751;28;20947;-59
2021/12/09 00:54:42;;;;;;;7.67;3.73;;;2.70;1.00;;;;;;4989917;28;20483;-59
2021/12/09 00:57:09;;;;;;;6.30;3.57;;;2.70;1.00;;;;;;4990272;28;20447;-59
2021/12/09 00:59:36;;;;;;;9.70;4.13;;;2.70;1.00;;;;;;4990526;28;20459;-59
2021/12/09 01:02:03;;;;;;;8.73;4.50;;;2.70;1.00;;;;;;4989863;28;20454;-59
2021/12/09 01:04:30;;;;;;;12.53;4.10;;;2.60;1.00;;;;;;4990122;28;20488;-59
2021/12/09 01:06:58;;;;;;;8.60;4.00;;;2.60;1.00;;;;;;4990230;28;20556;-59
2021/12/09 01:09:25;;;;;;;8.73;3.40;;;2.60;1.00;;;;;;4989815;28;20459;-59
2021/12/09 01:11:51;;;;;;;9.00;3.63;;;2.60;1.00;;;;;;4989864;28;20450;-59
2021/12/09 01:14:18;;;;;;;7.87;3.33;;;2.60;1.00;;;;;;4990079;28;20532;-59
2021/12/09 01:16:45;;;;;;;11.90;4.07;;;2.60;1.00;;;;;;4990195;28;20514;-59
2021/12/09 01:19:12;;;;;;;7.40;3.53;;;2.50;1.00;;;;;;4990097;28;20482;-59
2021/12/09 01:21:38;;;;;;;11.37;3.93;;;2.50;1.00;;;;;;4988900;28;20461;-59
2021/12/09 01:24:06;;;;;;;10.07;3.70;;;2.50;1.00;;;;;;4989861;28;20471;-59
2021/12/09 01:26:33;;;;;;;9.77;4.33;;;2.50;1.00;;;;;;4989911;28;20493;-59
2021/12/09 01:29:04;;;;;;;6.93;3.13;;;2.50;1.00;;;;;;4990144;28;20854;-58
2021/12/09 01:31:34;;;;;;;7.57;3.90;;;2.50;1.00;;;;;;4989400;28;20973;-58
2021/12/09 01:34:03;;;;;;;7.30;3.73;;;2.50;1.00;;;;;;4989844;28;20478;-59
2021/12/09 01:36:31;;;;;;;8.97;4.23;;;2.50;1.00;;;;;;4989548;28;20451;-59
2021/12/09 01:38:58;;;;;;;12.63;3.50;;;2.50;1.00;;;;;;4989839;28;20836;-59
2021/12/09 01:41:26;;;;;;;7.20;3.30;;;2.50;1.00;;;;;;4989117;28;20469;-59
2021/12/09 01:43:53;;;;;;;11.43;3.87;;;2.50;1.00;;;;;;4989994;28;20507;-59
2021/12/09 01:46:21;;;;;;;9.67;3.63;;;2.50;1.00;;;;;;4989480;28;20461;-59
2021/12/09 01:48:50;;;;;;;6.37;3.30;;;2.50;1.00;;;;;;4989362;28;20493;-59
2021/12/09 01:51:19;;;;;;;8.23;2.93;;;2.50;1.00;;;;;;4989285;28;20508;-59
2021/12/09 01:53:47;;;;;;;8.30;4.20;;;2.50;1.00;;;;;;4989462;28;20477;-59
2021/12/09 01:56:20;;;;;;;7.90;3.70;;;2.50;1.00;;;;;;4989623;28;20455;-58
2021/12/09 01:58:49;;;;;;;6.40;3.37;;;2.40;1.00;;;;;;4989554;28;20886;-59
2021/12/09 02:01:16;;;;;;;6.67;3.47;;;2.40;1.00;;;;;;4989437;28;20462;-59
2021/12/09 02:03:43;;;;;;;5.17;3.10;;;2.30;1.00;;;;;;4989641;28;20482;-58
2021/12/09 02:06:11;;;;;;;7.97;3.00;;;2.30;1.00;;;;;;4989985;28;20511;-59
2021/12/09 02:08:38;;;;;;;10.80;3.67;;;2.30;1.00;;;;;;4989576;28;20547;-58
2021/12/09 02:11:05;;;;;;;8.57;3.60;;;2.20;1.00;;;;;;4989410;28;20555;-58
2021/12/09 02:13:31;;;;;;;6.73;3.47;;;2.20;1.00;;;;;;4989240;28;20849;-59
2021/12/09 02:16:00;;;;;;;6.10;3.17;;;2.20;1.00;;;;;;4989262;28;20453;-59
2021/12/09 02:18:27;;;;;;;9.67;4.00;;;2.20;1.00;;;;;;4989420;28;20457;-59
2021/12/09 02:21:12;;;;;;;10.47;3.90;;;2.20;1.00;;;;;;4989390;28;20458;-58
2021/12/09 02:23:42;;;;;;;8.47;3.53;;;2.20;1.00;;;;;;4989347;28;20822;-58
2021/12/09 02:26:09;;;;;;;7.97;3.67;;;2.20;1.00;;;;;;4989243;28;20503;-59
2021/12/09 02:28:36;;;;;;;10.93;3.77;;;2.10;1.00;;;;;;4989063;28;20849;-59
2021/12/09 02:31:03;;;;;;;9.63;3.97;;;2.10;1.00;;;;;;4989302;28;20456;-58
2021/12/09 02:33:29;;;;;;;8.50;3.27;;;2.10;1.00;;;;;;4988974;28;20454;-58
2021/12/09 02:35:56;;;;;;;13.97;3.73;;;2.10;1.00;;;;;;4992423;28;20508;-59
2021/12/09 02:38:24;;;;;;;7.57;3.80;;;2.00;1.00;;;;;;4992388;28;20453;-59
2021/12/09 02:40:53;;;;;;;9.60;4.07;;;2.00;1.00;;;;;;4992170;28;20501;-59
2021/12/09 02:43:25;;;;;;;4.97;3.27;;;2.00;1.00;;;;;;4992058;28;20515;-59
2021/12/09 02:45:52;;;;;;;9.97;3.50;;;2.00;1.00;;;;;;4992437;28;20872;-59
2021/12/09 02:48:21;;;;;;;10.97;3.83;;;2.10;1.00;;;;;;4992054;28;20489;-59
2021/12/09 02:50:48;;;;;;;10.10;3.70;;;2.00;1.00;;;;;;4992231;28;20869;-59
2021/12/09 02:53:15;;;;;;;7.37;3.20;;;2.00;1.00;;;;;;4991791;28;20455;-59
2021/12/09 02:55:44;;;;;;;6.73;3.33;;;2.00;1.00;;;;;;4991921;28;20971;-59
2021/12/09 02:58:11;;;;;;;10.53;3.60;;;2.00;1.00;;;;;;4992824;28;20458;-59
2021/12/09 03:00:52;;;;;;;10.00;3.63;;;1.90;1.00;;;;;;4992235;28;20454;-59
2021/12/09 03:03:19;;;;;;;8.87;3.37;;;1.90;1.00;;;;;;4991844;28;20790;-59
2021/12/09 03:05:47;;;;;;;7.10;3.07;;;1.90;1.00;;;;;;4992005;28;20480;-59
2021/12/09 03:08:19;;;;;;;8.63;4.20;;;1.90;1.00;;;;;;4991927;28;20491;-59
2021/12/09 03:10:47;;;;;;;8.23;3.80;;;1.80;1.00;;;;;;4991879;28;20797;-58
2021/12/09 03:13:15;;;;;;;10.80;3.77;;;1.90;1.00;;;;;;4991646;28;20545;-59
2021/12/09 03:15:42;;;;;;;9.53;4.17;;;1.90;1.00;;;;;;4991576;28;20957;-59
2021/12/09 03:18:08;;;;;;;8.80;3.67;;;1.80;1.00;;;;;;4991769;28;20513;-58
2021/12/09 03:20:35;;;;;;;6.67;3.90;;;1.80;1.00;;;;;;4991803;28;20456;-59
2021/12/09 03:23:02;;;;;;;9.33;4.40;;;1.80;1.00;;;;;;4991445;28;20456;-57
2021/12/09 03:25:29;;;;;;;9.40;4.03;;;1.80;1.00;;;;;;4991931;28;20524;-57
2021/12/09 03:27:56;;;;;;;7.90;4.53;;;1.80;1.00;;;;;;4991648;28;20481;-59
2021/12/09 03:30:24;;;;;;;6.03;3.20;;;1.80;1.00;;;;;;4992083;28;20461;-59
2021/12/09 03:32:51;;;;;;;8.13;4.23;;;1.80;1.00;;;;;;4991132;28;20549;-58
2021/12/09 03:35:17;;;;;;;8.23;3.77;;;1.70;1.00;;;;;;4991339;28;20479;-58
2021/12/09 03:37:45;;;;;;;8.80;3.77;;;1.70;1.00;;;;;;4991603;28;20446;-59
2021/12/09 03:40:14;;;;;;;10.20;4.10;;;1.80;1.00;;;;;;4991632;28;20522;-56
2021/12/09 03:42:41;;;;;;;7.73;3.70;;;1.80;1.00;;;;;;4991074;28;20468;-58
2021/12/09 03:45:11;;;;;;;11.73;4.03;;;1.80;1.00;;;;;;4991025;28;20531;-59
2021/12/09 03:47:38;;;;;;;8.07;3.53;;;1.80;1.00;;;;;;4991207;28;20536;-57
2021/12/09 03:50:07;;;;;;;12.30;4.33;;;1.80;1.00;;;;;;4991449;28;20515;-58
2021/12/09 03:52:34;;;;;;;13.80;4.17;;;1.80;1.00;;;;;;4991081;28;20453;-59
2021/12/09 03:55:01;;;;;;;9.20;3.70;;;1.80;1.00;;;;;;4991031;28;20998;-59
2021/12/09 03:57:28;;;;;;;8.20;4.13;;;1.80;1.00;;;;;;4991146;28;20526;-59
2021/12/09 03:59:55;;;;;;;8.40;4.10;;;1.80;1.00;;;;;;4991178;28;20962;-59
2021/12/09 04:02:23;;;;;;;8.70;3.87;;;1.80;1.00;;;;;;4990607;28;20477;-59
2021/12/09 04:04:51;;;;;;;11.57;4.07;;;1.80;1.00;;;;;;4991314;28;20470;-58
2021/12/09 04:07:18;;;;;;;7.90;4.03;;;1.80;1.00;;;;;;4991143;28;20446;-59
2021/12/09 04:09:44;;;;;;;13.87;3.97;;;1.70;1.00;;;;;;4991194;28;20461;-59
2021/12/09 04:12:14;;;;;;;8.63;4.27;;;1.60;1.00;;;;;;4990414;28;20941;-58
2021/12/09 04:14:40;;;;;;;7.33;4.23;;;1.70;1.00;;;;;;4990819;28;20477;-58
2021/12/09 04:17:07;;;;;;;10.73;4.27;;;1.60;1.00;;;;;;4990845;28;20941;-59
2021/12/09 04:19:35;;;;;;;9.67;4.20;;;1.60;1.00;;;;;;4991017;28;20455;-59
2021/12/09 04:22:03;;;;;;;8.67;4.20;;;1.60;1.00;;;;;;4990339;28;20454;-59
2021/12/09 04:24:29;;;;;;;5.70;3.87;;;1.60;1.00;;;;;;4990672;28;20527;-59
2021/12/09 04:26:56;;;;;;;12.37;4.53;;;1.60;1.00;;;;;;4990589;28;20456;-58
2021/12/09 04:29:23;;;;;;;12.03;4.00;;;1.60;1.00;;;;;;4991149;28;20485;-61
2021/12/09 04:31:51;;;;;;;14.13;4.03;;;1.70;1.00;;;;;;4990475;28;20502;-58
2021/12/09 04:34:19;;;;;;;11.30;4.27;;;1.70;1.00;;;;;;4990396;28;20477;-57
2021/12/09 04:36:48;;;;;;;7.80;3.87;;;1.70;1.00;;;;;;4990397;28;20444;-59
2021/12/09 04:39:14;;;;;;;7.00;4.00;;;1.70;1.00;;;;;;4990484;28;20505;-59
2021/12/09 04:41:42;;;;;;;8.73;4.13;;;1.60;1.00;;;;;;4990075;28;20453;-58
2021/12/09 04:44:09;;;;;;;9.47;4.10;;;1.60;1.00;;;;;;4990687;28;20541;-59
2021/12/09 04:46:36;;;;;;;7.13;3.70;;;1.60;1.00;;;;;;4990301;28;20460;-57
2021/12/09 04:49:04;;;;;;;11.10;4.50;;;1.60;1.00;;;;;;4990360;28;20584;-59
2021/12/09 04:51:30;;;;;;;7.90;3.83;;;1.50;1.00;;;;;;4990386;28;20455;-59
2021/12/09 04:53:58;;;;;;;12.63;5.23;;;1.50;1.00;;;;;;4990303;28;20515;-59
2021/12/09 04:56:25;;;;;;;9.23;4.53;;;1.50;1.00;;;;;;4989104;28;20973;-59
2021/12/09 04:58:52;;;;;;;9.10;4.27;;;1.50;1.00;;;;;;4990389;28;20507;-57
2021/12/09 05:01:19;;;;;;;11.73;4.47;;;1.50;1.00;;;;;;4990033;28;20510;-59
2021/12/09 05:03:48;;;;;;;9.33;3.83;;;1.50;1.00;;;;;;4990188;28;21021;-58
2021/12/09 05:06:16;;;;;;;6.67;3.67;;;1.60;1.00;;;;;;4989979;28;20462;-59
2021/12/09 05:08:46;;;;;;;11.13;3.97;;;1.60;1.00;;;;;;4989884;28;20521;-59
2021/12/09 05:11:28;;;;;;;8.17;4.00;;;1.60;1.00;;;;;;4989772;28;20452;-58
2021/12/09 05:13:56;;;;;;;10.90;4.23;;;1.60;1.00;;;;;;4990021;28;20476;-59
2021/12/09 05:16:24;;;;;;;10.17;4.47;;;1.60;1.00;;;;;;4990035;28;20453;-59
2021/12/09 05:18:57;;;;;;;9.57;4.07;;;1.60;1.00;;;;;;4987565;28;20850;-58
2021/12/09 05:21:24;;;;;;;10.87;4.37;;;1.50;1.00;;;;;;4988034;28;20513;-58
2021/12/09 05:23:51;;;;;;;6.90;3.80;;;1.50;1.00;;;;;;4989570;28;20529;-59
2021/12/09 05:26:20;;;;;;;9.13;3.97;;;1.50;1.00;;;;;;4997309;28;20458;-62
2021/12/09 05:28:54;;;;;;;12.10;4.43;;;1.90;1.00;;;;;;4996250;28;20487;-62
2021/12/09 05:34:05;;;;;;;11.67;4.63;;;2.70;1.00;;;;;;4982265;28;20450;-58
2021/12/09 05:36:32;;;;;;;8.60;4.13;;;2.40;1.00;;;;;;4989618;28;20514;-57
2021/12/09 05:38:59;;;;;;;11.10;3.90;;;2.10;1.00;;;;;;4989860;28;20944;-58
2021/12/09 05:41:27;;;;;;;6.97;3.53;;;1.90;1.00;;;;;;4989190;28;20464;-59
2021/12/09 05:43:54;;;;;;;6.77;3.33;;;1.90;1.00;;;;;;4989460;28;20470;-57
2021/12/09 05:46:22;;;;;;;10.47;3.60;;;1.80;1.00;;;;;;4989182;28;20445;-58
2021/12/09 05:48:50;;;;;;;11.23;3.63;;;1.80;1.00;;;;;;4989535;28;20498;-57
2021/12/09 05:51:17;;;;;;;8.13;3.50;;;1.80;1.00;;;;;;4989196;28;20457;-59
2021/12/09 05:53:43;;;;;;;7.67;4.20;;;1.70;1.00;;;;;;4989315;28;20978;-56
2021/12/09 05:56:10;;;;;;;7.87;3.73;;;1.70;1.00;;;;;;4989439;28;20511;-55
2021/12/09 05:58:38;;;;;;;7.33;3.70;;;1.60;1.00;;;;;;4989077;28;20501;-58
2021/12/09 06:01:05;;;;;;;9.53;4.10;;;1.60;1.00;;;;;;4988684;28;20506;-58
2021/12/09 06:03:31;;;;;;;8.03;3.50;;;1.60;1.00;;;;;;4989204;28;20466;-58
2021/12/09 06:05:58;;;;;;;11.10;4.63;;;1.50;1.00;;;;;;4989424;28;20521;-56
2021/12/09 06:08:25;;;;;;;11.90;3.90;;;1.50;1.00;;;;;;4990729;28;20903;-57
2021/12/09 06:10:52;;;;;;;8.67;4.20;;;1.50;1.00;;;;;;4991457;28;20522;-59
2021/12/09 06:13:19;;;;;;;10.40;4.13;;;1.40;1.00;;;;;;4992349;28;20533;-56
2021/12/09 06:15:47;;;;;;;8.47;4.13;;;1.40;1.00;;;;;;4991700;28;20453;-57
2021/12/09 06:18:14;;;;;;;9.10;4.07;;;1.40;1.00;;;;;;4987761;28;20507;-57
2021/12/09 06:20:41;;;;;;;10.43;3.90;;;1.40;1.00;;;;;;4991934;28;20590;-57
2021/12/09 06:23:08;;;;;;;8.60;4.20;;;1.40;1.00;;;;;;4991262;28;20931;-56
2021/12/09 06:25:34;;;;;;;11.50;4.20;;;1.40;1.00;;;;;;4991879;28;20520;-59
2021/12/09 06:28:01;;;;;;;10.93;4.27;;;1.30;1.00;;;;;;4991600;28;20458;-57
2021/12/09 06:30:28;;;;;;;8.70;3.80;;;1.30;1.00;;;;;;4991762;28;20534;-57
2021/12/09 06:32:56;;;;;;;8.33;4.47;;;1.30;1.00;;;;;;4991155;28;20451;-58
2021/12/09 06:35:23;;;;;;;10.87;4.50;;;1.30;1.00;;;;;;4991624;28;20543;-57
2021/12/09 06:37:50;;;;;;;11.40;4.63;;;1.30;1.00;;;;;;4991796;28;20825;-57
2021/12/09 06:40:20;;;;;;;10.87;4.13;;;1.30;1.00;;;;;;4992030;28;20456;-56
2021/12/09 06:42:48;;;;;;;15.83;4.13;;;1.30;1.00;;;;;;4990982;28;20857;-58
2021/12/09 06:45:17;;;;;;;10.10;4.17;;;1.30;1.00;;;;;;4991838;28;20848;-55
2021/12/09 06:47:45;;;;;;;11.23;3.90;;;1.30;1.00;;;;;;4991585;28;20456;-57
2021/12/09 06:50:15;;;;;;;8.70;4.30;;;1.30;1.00;;;;;;4991502;28;20486;-56
2021/12/09 06:52:42;;;;;;;8.57;4.03;;;1.30;1.00;;;;;;4991011;28;20452;-55
2021/12/09 06:55:11;;;;;;;10.10;4.47;;;1.40;1.00;;;;;;4991240;28;20492;-58
2021/12/09 06:57:39;;;;;;;15.37;4.03;;;1.40;1.00;;;;;;4991568;28;20464;-58
2021/12/09 07:00:08;;;;;;;16.90;4.33;;;1.40;1.00;;;;;;4991705;28;20556;-61
2021/12/09 07:02:35;;;;;;;12.43;4.67;;;1.50;1.00;;;;;;4991063;28;20465;-62
2021/12/09 07:05:02;;;;;;;14.60;4.03;;;1.50;1.00;;;;;;4991502;28;20472;-59
2021/12/09 07:07:30;;;;;;;10.77;4.40;;;1.50;1.00;;;;;;4991490;28;20876;-57
2021/12/09 07:09:57;;;;;;;11.77;4.40;;;1.50;1.00;;;;;;4991275;28;20483;-55
2021/12/09 07:12:23;;;;;;;10.80;4.23;;;1.50;1.00;;;;;;4990700;28;20456;-55
2021/12/09 07:14:50;;;;;;;9.93;3.90;;;1.50;1.00;;;;;;4991255;28;20537;-57
2021/12/09 07:17:17;;;;;;;11.33;3.70;;;1.60;1.00;;;;;;4991262;28;20513;-62
2021/12/09 07:19:44;;;;;;;9.37;4.67;;;1.60;1.00;;;;;;4990447;28;20460;-55
2021/12/09 07:22:11;;;;;;;15.53;4.57;;;1.60;1.00;;;;;;4990317;28;20962;-58
2021/12/09 07:24:39;;;;;;;9.20;3.60;;;1.60;1.00;;;;;;4991136;28;20535;-58
2021/12/09 07:27:06;;;;;;;10.93;4.17;;;1.60;1.00;;;;;;4991181;28;20459;-58
2021/12/09 07:29:32;;;;;;;8.33;3.50;;;1.60;1.00;;;;;;4990992;28;20491;-58
2021/12/09 07:31:59;;;;;;;9.97;3.83;;;1.60;1.00;;;;;;4990681;28;20538;-57
2021/12/09 07:34:26;;;;;;;9.00;4.27;;;1.70;1.00;;;;;;4990902;28;20829;-56
2021/12/09 07:36:52;;;;;;;9.83;3.90;;;1.70;1.00;;;;;;4990647;28;21052;-61
2021/12/09 07:39:19;;;;;;;11.43;4.23;;;1.70;1.00;;;;;;4991020;28;20453;-61
2021/12/09 07:41:47;;;;;;;7.97;4.17;;;1.80;1.00;;;;;;4990431;28;20467;-62
2021/12/09 07:44:17;;;;;;;10.43;3.73;;;1.90;1.00;;;;;;4990630;28;20989;-62
2021/12/09 07:46:45;;;;;;;10.07;4.73;;;2.00;1.00;;;;;;4990765;28;20463;-62
2021/12/09 07:49:12;;;;;;;17.07;5.43;;;2.00;1.00;;;;;;4990308;28;20488;-61
2021/12/09 07:51:39;;;;;;;11.33;4.17;;;2.00;1.00;;;;;;4990151;28;20526;-59
2021/12/09 07:54:05;;;;;;;9.90;3.93;;;2.00;1.00;;;;;;4990314;28;20838;-59
2021/12/09 07:56:33;;;;;;;12.57;4.03;;;2.00;1.00;;;;;;4990728;28;20514;-62
2021/12/09 07:59:01;;;;;;;8.10;3.47;;;2.00;1.00;;;;;;4990308;28;20454;-61
2021/12/09 08:01:29;;;;;;;7.90;3.90;;;2.00;1.00;;;;;;4990155;28;20469;-63
2021/12/09 08:03:55;;;;;;;9.47;4.03;;;2.00;1.00;;;;;;4990145;28;20480;-65
2021/12/09 08:06:22;;;;;;;8.97;3.83;;;2.00;1.00;;;;;;4990489;28;20449;-65
2021/12/09 08:08:49;;;;;;;5.50;3.40;;;2.40;1.00;;;;;;4990622;28;20482;-61
2021/12/09 08:11:16;;;;;;;9.57;4.13;;;2.30;1.00;;;;;;4990055;28;20539;-62
2021/12/09 08:13:42;;;;;;;11.47;4.43;;;2.30;1.00;;;;;;4990060;28;20475;-62
2021/12/09 08:16:10;;;;;;;11.50;4.67;;;2.20;1.00;;;;;;4990183;28;20447;-62
2021/12/09 08:18:53;;;;;;;13.63;4.40;;;2.20;1.00;;;;;;4990487;28;20712;-62
2021/12/09 08:21:20;;;;;;;6.47;3.47;;;2.20;1.00;;;;;;4990383;28;20813;-61
2021/12/09 08:23:48;;;;;;;15.77;3.93;;;2.20;1.00;;;;;;4989809;28;20478;-61
2021/12/09 08:26:14;;;;;;;9.93;3.90;;;2.20;1.00;;;;;;4989858;28;20455;-61
2021/12/09 08:28:41;;;;;;;19.13;4.50;;;2.30;1.00;;;;;;4989934;28;20497;-60
2021/12/09 08:31:10;;;;;;;7.97;2.90;;;2.30;1.00;;;;;;4988565;28;20466;-60
2021/12/09 08:33:36;;;;;;;7.27;3.37;;;2.40;1.00;;;;;;4989638;28;20485;-61
2021/12/09 08:36:04;;;;;;;10.43;3.87;;;2.40;1.00;;;;;;4990130;28;20462;-61
2021/12/09 08:38:31;;;;;;;9.63;3.40;;;2.50;1.00;;;;;;4989958;28;20468;-61
2021/12/09 08:40:58;;;;;;;8.33;3.63;;;2.60;1.00;;;;;;4989856;28;20536;-61
2021/12/09 08:43:24;;;;;;;12.67;4.00;;;2.60;1.00;;;;;;4989176;28;20962;-61
2021/12/09 08:45:54;;;;;;;11.00;3.93;;;2.70;1.00;;;;;;4990006;28;20478;-62
2021/12/09 08:48:22;;;;;;;14.20;3.53;;;2.70;1.00;;;;;;4990025;28;20538;-62
2021/12/09 08:50:50;;;;;;;8.30;3.47;;;2.80;1.00;;;;;;4989696;28;20893;-61
2021/12/09 08:53:19;;;;;;;9.57;3.47;;;2.80;1.00;;;;;;4988023;28;20459;-62
2021/12/09 08:55:46;;;;;;;8.77;3.60;;;2.90;1.00;;;;;;4989284;28;20463;-61
2021/12/09 08:58:14;;;;;;;9.10;4.40;;;2.90;1.00;;;;;;4989427;28;20462;-59
2021/12/09 09:00:42;;;;;;;9.37;3.93;;;2.90;1.00;;;;;;4989827;28;20538;-60
2021/12/09 09:03:09;;;;;;;8.50;4.27;;;2.90;1.00;;;;;;4988973;28;20453;-59
2021/12/09 09:05:39;;;;;;;7.80;3.20;;;3.00;1.00;;;;;;4989510;28;20486;-61
2021/12/09 09:08:08;;;;;;;9.63;3.90;;;3.00;1.00;;;;;;4989340;28;20465;-62
2021/12/09 09:10:38;;;;;;;9.17;4.10;;;2.90;1.00;;;;;;4989245;28;20479;-60
2021/12/09 09:13:05;;;;;;;15.37;3.90;;;2.90;1.00;;;;;;4989075;28;20455;-61
2021/12/09 09:15:33;;;;;;;7.67;3.60;;;2.90;1.00;;;;;;4988983;28;20998;-61
2021/12/09 09:18:00;;;;;;;9.63;3.47;;;2.90;1.00;;;;;;4989242;28;20448;-61
2021/12/09 09:20:30;;;;;;;7.23;4.00;;;2.90;1.00;;;;;;4989156;28;20454;-60
2021/12/09 09:22:59;;;;;;;9.50;3.93;;;2.80;1.00;;;;;;4988672;28;21359;-61
2021/12/09 09:25:29;;;;;;;10.13;4.10;;;2.80;1.00;;;;;;4989015;28;20982;-59
2021/12/09 09:27:57;;;;;;;10.77;4.13;;;2.90;1.00;;;;;;4989524;28;20462;-59
2021/12/09 09:30:26;;;;;;;7.53;4.17;;;2.90;1.00;;;;;;4989422;28;20516;-59
2021/12/09 09:32:53;;;;;;;11.50;4.17;;;3.00;1.00;;;;;;4988902;28;20523;-61
2021/12/09 09:35:20;;;;;;;5.77;3.57;;;3.00;1.00;;;;;;4989271;28;20479;-59
2021/12/09 09:37:48;;;;;;;7.33;3.90;;;3.10;1.00;;;;;;4988843;28;20455;-59
2021/12/09 09:40:27;;;;;;;10.13;4.60;;;3.10;1.00;;;;;;4989190;28;20455;-60
2021/12/09 09:43:02;;;;;;;8.83;4.40;;;3.20;1.00;;;;;;4988479;28;21040;-59
2021/12/09 09:45:30;;;;;;;8.97;4.10;;;3.20;1.00;;;;;;4992402;28;20474;-60
2021/12/09 09:47:57;;;;;;;9.47;4.40;;;3.30;1.00;;;;;;4993018;28;20476;-59
2021/12/09 09:50:25;;;;;;;8.73;3.83;;;3.30;1.00;;;;;;4992757;28;20520;-57
2021/12/09 09:52:53;;;;;;;10.20;3.93;;;3.30;1.00;;;;;;4992148;28;20446;-59
2021/12/09 09:55:22;;;;;;;9.33;4.43;;;3.40;1.00;;;;;;4992335;28;20482;-60
2021/12/09 09:57:50;;;;;;;9.93;3.77;;;3.40;1.00;;;;;;4992377;28;20455;-60
2021/12/09 10:00:20;;;;;;;7.23;3.70;;;3.50;1.00;;;;;;4991067;28;20877;-60
2021/12/09 10:02:52;;;;;;;9.27;4.07;;;3.60;1.00;;;;;;4991700;28;21100;-60
2021/12/09 10:05:22;;;;;;;6.60;3.60;;;3.60;1.00;;;;;;4991847;28;20482;-57
2021/12/09 10:07:50;;;;;;;9.10;4.00;;;3.60;1.00;;;;;;4992309;28;20458;-58
2021/12/09 10:10:17;;;;;;;10.77;4.03;;;3.70;1.00;;;;;;4992149;28;20525;-56
2021/12/09 10:13:01;;;;;;;8.93;4.10;;;3.70;1.00;;;;;;4991453;28;20446;-58
2021/12/09 10:15:36;;;;;;;9.83;3.63;;;3.70;1.00;;;;;;4992734;28;20471;-61
2021/12/09 10:18:03;;;;;;;6.67;4.07;;;3.70;1.00;;;;;;4992231;28;20458;-59
2021/12/09 10:20:43;;;;;;;7.30;3.70;;;3.70;1.00;;;;;;4992073;28;20450;-56
2021/12/09 10:23:30;;;;;;;6.97;3.40;;;3.80;1.00;;;;;;4991613;28;20463;-54
2021/12/09 10:26:23;;;;;;;9.00;3.63;;;3.80;1.00;;;;;;4992424;28;20459;-57
2021/12/09 10:28:55;;;;;;;8.87;3.83;;;3.80;1.00;;;;;;4991614;28;20510;-59
2021/12/09 10:31:26;;;;;;;6.73;4.00;;;3.80;1.00;;;;;;4991550;28;20486;-60
2021/12/09 10:34:03;;;;;;;5.83;3.80;;;3.90;1.00;;;;;;4991755;28;20493;-62
2021/12/09 10:36:51;;;;;;;11.90;3.93;;;3.90;1.00;;;;;;4991861;28;20465;-59
2021/12/09 10:39:25;;;;;;;5.30;3.27;;;4.00;1.00;;;;;;4991963;28;20472;-59
2021/12/09 10:41:53;;;;;;;8.37;4.30;;;4.00;1.00;;;;;;4991249;28;20447;-59
2021/12/09 10:44:31;;;;;;;7.07;4.10;;;4.00;1.00;;;;;;4991314;28;20470;-59
2021/12/09 10:47:07;;;;;;;11.07;3.47;;;4.00;1.00;;;;;;4991772;28;20481;-61
2021/12/09 10:49:45;;;;;;;15.27;4.23;;;4.00;1.00;;;;;;4991526;28;20330;-59
2021/12/09 10:52:25;;;;;;;12.93;4.17;;;4.00;1.00;;;;;;4991059;28;20865;-59
2021/12/09 10:54:52;;;;;;;8.67;3.97;;;4.00;1.00;;;;;;4990055;28;20890;-60
2021/12/09 10:57:27;;;;;;;6.07;3.80;;;4.00;1.00;;;;;;4991650;28;20458;-60
2021/12/09 10:59:56;;;;;;;6.77;3.47;;;4.00;1.00;;;;;;4991811;28;20462;-62
2021/12/09 11:02:24;;;;;;;9.93;4.00;;;4.00;1.00;;;;;;4992287;28;20458;-60
2021/12/09 11:05:04;;;;;;;9.57;3.83;;;4.00;1.00;;;;;;4991267;28;20536;-59
2021/12/09 11:07:32;;;;;;;9.60;3.57;;;4.10;1.00;;;;;;4991462;28;20453;-59
2021/12/09 11:10:16;;;;;;;9.83;3.50;;;4.10;1.00;;;;;;4991318;28;20626;-60
2021/12/09 11:12:49;;;;;;;8.20;3.77;;;4.20;1.00;;;;;;4990565;28;20959;-59
2021/12/09 11:15:19;;;;;;;8.37;3.63;;;4.20;1.00;;;;;;4990975;28;20494;-57
2021/12/09 11:17:49;;;;;;;5.90;3.73;;;4.20;1.00;;;;;;4991118;28;20455;-57
2021/12/09 11:20:35;;;;;;;8.10;4.23;;;4.20;1.00;;;;;;4991323;28;20447;-58
2021/12/09 11:23:25;;;;;;;7.03;3.87;;;4.30;1.00;;;;;;4990350;28;20451;-57
2021/12/09 11:25:52;;;;;;;8.03;3.60;;;4.20;1.00;;;;;;4991321;28;20455;-58
2021/12/09 11:28:19;;;;;;;10.93;4.57;;;4.30;1.00;;;;;;4991346;28;20478;-58
2021/12/09 11:31:11;;;;;;;10.43;4.33;;;4.30;1.00;;;;;;4991144;28;20884;-59
2021/12/09 11:33:42;;;;;;;10.30;4.00;;;4.30;1.00;;;;;;4990918;28;20483;-57
2021/12/09 11:36:15;;;;;;;7.93;3.53;;;4.30;1.00;;;;;;4991033;28;20451;-59
2021/12/09 11:39:14;;;;;;;10.07;4.53;;;4.40;1.00;;;;;;4990900;28;20489;-58
2021/12/09 11:41:42;;;;;;;10.03;4.33;;;4.30;1.00;;;;;;4990547;28;20789;-57
2021/12/09 11:44:11;;;;;;;9.33;4.23;;;4.30;1.00;;;;;;4991369;28;20475;-59
2021/12/09 11:46:39;;;;;;;7.73;4.13;;;4.30;1.00;;;;;;4990881;28;20458;-58
2021/12/09 11:49:07;;;;;;;8.67;4.00;;;4.40;1.00;;;;;;4990686;28;21022;-57
2021/12/09 11:51:34;;;;;;;9.20;4.23;;;4.30;1.00;;;;;;4990522;28;20486;-60
2021/12/09 11:54:02;;;;;;;6.63;4.10;;;4.40;1.00;;;;;;4990638;28;20999;-59
2021/12/09 11:56:39;;;;;;;8.53;4.20;;;4.50;1.00;;;;;;4990777;28;20215;-59
2021/12/09 12:11:04;;;;;;;14.77;4.40;;;4.50;1.00;;;;;;4990253;28;20415;-57
2021/12/09 12:13:39;;;;;;;9.70;4.20;;;4.40;1.00;;;;;;4989880;28;20458;-58
2021/12/09 12:16:41;;;;;;;9.47;3.97;;;4.40;99.90;;;;;;4990776;28;20465;-57
2021/12/09 12:19:15;;;;;;;13.43;5.63;;;4.40;1.00;;;;;;4990850;28;20454;-59
2021/12/09 12:27:40;;;;;;;12.20;4.50;;;4.40;1.00;;;;;;4988322;28;20359;-57
2021/12/09 12:30:37;;;;;;;16.30;4.70;;;4.30;1.00;;;;;;4990122;28;20490;-58
2021/12/09 12:35:59;;;;;;;8.60;4.93;;;4.30;1.00;;;;;;4968131;28;20455;-55
2021/12/09 12:38:37;;;;;;;8.00;4.07;;;4.20;1.00;;;;;;4971253;28;20228;-57
2021/12/09 12:41:09;;;;;;;7.70;4.53;;;4.30;1.00;;;;;;4970314;28;20476;-52
2021/12/09 12:43:42;;;;;;;9.40;4.63;;;4.30;1.00;;;;;;4970473;28;20464;-55
2021/12/09 12:46:19;;;;;;;8.23;4.40;;;4.30;1.00;;;;;;4970579;28;20452;-57
2021/12/09 12:51:42;;;;;;;10.63;4.63;;;4.30;1.00;;;;;;4969059;28;20609;-59
2021/12/09 12:54:26;;;;;;;7.37;4.60;;;4.30;1.00;;;;;;4970217;28;20483;-60
2021/12/09 12:56:57;;;;;;;8.33;3.70;;;4.30;1.00;;;;;;4970500;28;20459;-60
2021/12/09 12:59:29;;;;;;;8.50;3.87;;;4.30;1.00;;;;;;4970154;28;20495;-61
2021/12/09 13:05:29;;;;;;;10.33;4.17;;;4.30;1.00;;;;;;4969918;28;20489;-59
2021/12/09 13:08:27;;;;;;;9.63;4.53;;;4.30;1.00;;;;;;4970256;28;20487;-60
2021/12/09 13:11:13;;;;;;;7.60;4.07;;;4.30;1.00;;;;;;4969977;28;21023;-61
2021/12/09 13:13:49;;;;;;;8.93;4.17;;;4.30;1.00;;;;;;4969895;28;20562;-61
2021/12/09 13:16:21;;;;;;;9.20;3.97;;;4.40;1.00;;;;;;4969888;28;20546;-61
2021/12/09 13:19:04;;;;;;;9.73;3.50;;;4.40;1.00;;;;;;4969409;28;20508;-61
2021/12/09 13:21:41;;;;;;;8.53;3.83;;;4.40;1.00;;;;;;4969409;28;20452;-61
2021/12/09 13:24:41;;;;;;;8.70;3.60;;;4.40;1.00;;;;;;4969768;28;21152;-61
2021/12/09 13:27:43;;;;;;;8.23;4.07;;;4.40;1.00;;;;;;4969931;28;20463;-59
2021/12/09 13:30:27;;;;;;;8.83;3.60;;;4.30;1.00;;;;;;4970309;28;20495;-61
2021/12/09 13:33:09;;;;;;;11.57;3.83;;;4.30;1.00;;;;;;4968852;28;20464;-60
2021/12/09 13:35:57;;;;;;;9.00;3.53;;;4.30;1.00;;;;;;4969993;28;20558;-60
2021/12/09 13:47:03;;;;;;;9.43;3.97;;;4.30;1.00;;;;;;4970584;28;20493;-55
2021/12/09 13:49:41;;;;;;;7.23;3.73;;;4.20;1.00;;;;;;4969806;28;20459;-58
2021/12/09 13:54:58;;;;;;;10.10;3.70;;;4.20;1.00;;;;;;4969545;28;20837;-59
2021/12/09 13:57:34;;;;;;;7.67;3.87;;;4.10;1.00;;;;;;4969326;28;20463;-59